sensor_id;sensor_type;location;lat;lon;timestamp;pressure;altitude;pressure_sealevel;temperature;humidity
29907;BME280;16776;50.958;10.994;2023-07-31T00:01:20;98178.78;;;15.68;98.08
29907;BME280;16776;50.958;10.994;2023-07-31T00:03:46;98190.69;;;15.72;98.14
29907;BME280;16776;50.958;10.994;2023-07-31T00:06:13;98189.69;;;15.74;97.95
29907;BME280;16776;50.958;10.994;2023-07-31T00:08:39;98188.88;;;15.74;98.02
29907;BME280;16776;50.958;10.994;2023-07-31T00:11:06;98192.28;;;15.74;97.94
29907;BME280;16776;50.958;10.994;2023-07-31T00:13:34;98192.03;;;15.79;97.90
29907;BME280;16776;50.958;10.994;2023-07-31T00:16:00;98195.47;;;15.79;98.03
29907;BME280;16776;50.958;10.994;2023-07-31T00:18:27;98191.03;;;15.81;98.01
29907;BME280;16776;50.958;10.994;2023-07-31T00:20:53;98190.03;;;15.84;98.18
29907;BME280;16776;50.958;10.994;2023-07-31T00:23:20;98185.59;;;15.86;98.29
29907;BME280;16776;50.958;10.994;2023-07-31T00:25:47;98183.72;;;15.88;98.40
29907;BME280;16776;50.958;10.994;2023-07-31T00:28:13;98174.09;;;15.90;98.21
29907;BME280;16776;50.958;10.994;2023-07-31T00:30:41;98174.94;;;15.91;98.49
29907;BME280;16776;50.958;10.994;2023-07-31T00:33:08;98165.56;;;15.88;98.90
29907;BME280;16776;50.958;10.994;2023-07-31T00:35:34;98169.06;;;15.87;98.98
29907;BME280;16776;50.958;10.994;2023-07-31T00:38:01;98173.53;;;15.85;99.04
29907;BME280;16776;50.958;10.994;2023-07-31T00:40:27;98172.75;;;15.83;99.27
29907;BME280;16776;50.958;10.994;2023-07-31T00:42:54;98171.94;;;15.83;99.39
29907;BME280;16776;50.958;10.994;2023-07-31T00:45:21;98168.50;;;15.82;99.48
29907;BME280;16776;50.958;10.994;2023-07-31T00:47:53;98171.09;;;15.82;99.46
29907;BME280;16776;50.958;10.994;2023-07-31T00:50:20;98168.75;;;15.77;99.79
29907;BME280;16776;50.958;10.994;2023-07-31T00:52:48;98167.91;;;15.77;99.47
29907;BME280;16776;50.958;10.994;2023-07-31T00:55:15;98160.31;;;15.74;99.47
29907;BME280;16776;50.958;10.994;2023-07-31T00:57:45;98157.44;;;15.78;99.54
29907;BME280;16776;50.958;10.994;2023-07-31T01:00:12;98156.25;;;15.68;99.75
29907;BME280;16776;50.958;10.994;2023-07-31T01:02:40;98152.81;;;15.68;99.88
29907;BME280;16776;50.958;10.994;2023-07-31T01:05:08;98151.84;;;15.70;100.00
29907;BME280;16776;50.958;10.994;2023-07-31T01:07:42;98150.00;;;15.72;99.73
29907;BME280;16776;50.958;10.994;2023-07-31T01:10:16;98143.22;;;15.70;100.00
29907;BME280;16776;50.958;10.994;2023-07-31T01:12:44;98137.09;;;15.71;99.05
29907;BME280;16776;50.958;10.994;2023-07-31T01:15:11;98136.09;;;15.58;100.00
29907;BME280;16776;50.958;10.994;2023-07-31T01:17:40;98130.91;;;15.58;100.00
29907;BME280;16776;50.958;10.994;2023-07-31T01:20:11;98132.31;;;15.63;100.00
29907;BME280;16776;50.958;10.994;2023-07-31T01:22:58;98131.25;;;15.67;100.00
29907;BME280;16776;50.958;10.994;2023-07-31T01:26:02;98124.38;;;15.66;100.00
29907;BME280;16776;50.958;10.994;2023-07-31T01:28:35;98114.50;;;15.57;100.00
29907;BME280;16776;50.958;10.994;2023-07-31T01:31:07;98116.31;;;15.55;100.00
29907;BME280;16776;50.958;10.994;2023-07-31T01:33:34;98108.81;;;15.51;100.00
29907;BME280;16776;50.958;10.994;2023-07-31T01:36:03;98101.09;;;15.49;100.00
29907;BME280;16776;50.958;10.994;2023-07-31T01:38:30;98096.94;;;15.47;100.00
29907;BME280;16776;50.958;10.994;2023-07-31T01:40:57;98090.06;;;15.46;100.00
29907;BME280;16776;50.958;10.994;2023-07-31T01:43:24;98093.41;;;15.48;100.00
29907;BME280;16776;50.958;10.994;2023-07-31T01:45:51;98093.56;;;15.45;100.00
29907;BME280;16776;50.958;10.994;2023-07-31T01:48:18;98085.88;;;15.43;100.00
29907;BME280;16776;50.958;10.994;2023-07-31T01:50:44;98082.63;;;15.39;100.00
29907;BME280;16776;50.958;10.994;2023-07-31T01:53:11;98080.16;;;15.36;100.00
29907;BME280;16776;50.958;10.994;2023-07-31T01:55:38;98084.72;;;15.33;100.00
29907;BME280;16776;50.958;10.994;2023-07-31T01:58:05;98085.66;;;15.30;100.00
29907;BME280;16776;50.958;10.994;2023-07-31T02:00:33;98079.56;;;15.31;100.00
29907;BME280;16776;50.958;10.994;2023-07-31T02:02:59;98072.03;;;15.27;100.00
29907;BME280;16776;50.958;10.994;2023-07-31T02:05:26;98079.97;;;15.24;100.00
29907;BME280;16776;50.958;10.994;2023-07-31T02:07:53;98075.81;;;15.21;100.00
29907;BME280;16776;50.958;10.994;2023-07-31T02:10:19;98080.22;;;15.19;100.00
29907;BME280;16776;50.958;10.994;2023-07-31T02:12:46;98076.88;;;15.17;100.00
29907;BME280;16776;50.958;10.994;2023-07-31T02:15:14;98078.72;;;15.15;100.00
29907;BME280;16776;50.958;10.994;2023-07-31T02:17:42;98059.81;;;15.13;100.00
29907;BME280;16776;50.958;10.994;2023-07-31T02:20:09;98076.47;;;15.09;100.00
29907;BME280;16776;50.958;10.994;2023-07-31T02:22:36;98067.16;;;15.05;100.00
29907;BME280;16776;50.958;10.994;2023-07-31T02:25:03;98065.59;;;15.02;100.00
29907;BME280;16776;50.958;10.994;2023-07-31T02:27:30;98070.94;;;14.99;100.00
29907;BME280;16776;50.958;10.994;2023-07-31T02:29:56;97996.44;;;14.54;100.00
29907;BME280;16776;50.958;10.994;2023-07-31T02:32:24;98066.13;;;14.92;100.00
29907;BME280;16776;50.958;10.994;2023-07-31T02:34:52;98060.97;;;14.92;100.00
29907;BME280;16776;50.958;10.994;2023-07-31T02:37:19;98061.22;;;14.87;100.00
29907;BME280;16776;50.958;10.994;2023-07-31T02:39:45;98068.31;;;14.84;100.00
29907;BME280;16776;50.958;10.994;2023-07-31T02:42:12;98056.34;;;14.81;100.00
29907;BME280;16776;50.958;10.994;2023-07-31T02:44:39;98061.59;;;14.80;100.00
29907;BME280;16776;50.958;10.994;2023-07-31T02:47:05;98054.00;;;14.77;100.00
29907;BME280;16776;50.958;10.994;2023-07-31T02:49:32;98055.06;;;14.73;100.00
29907;BME280;16776;50.958;10.994;2023-07-31T02:52:00;98050.81;;;14.72;100.00
29907;BME280;16776;50.958;10.994;2023-07-31T02:54:26;98050.13;;;14.68;100.00
29907;BME280;16776;50.958;10.994;2023-07-31T02:56:53;98047.72;;;14.65;100.00
29907;BME280;16776;50.958;10.994;2023-07-31T02:59:20;98050.38;;;14.64;100.00
29907;BME280;16776;50.958;10.994;2023-07-31T03:01:46;98054.81;;;14.61;100.00
29907;BME280;16776;50.958;10.994;2023-07-31T03:04:13;98053.19;;;14.59;100.00
29907;BME280;16776;50.958;10.994;2023-07-31T03:06:39;98074.03;;;14.57;100.00
29907;BME280;16776;50.958;10.994;2023-07-31T03:09:07;98059.22;;;14.59;100.00
29907;BME280;16776;50.958;10.994;2023-07-31T03:11:34;98060.31;;;14.55;100.00
29907;BME280;16776;50.958;10.994;2023-07-31T03:14:00;98060.44;;;14.52;100.00
29907;BME280;16776;50.958;10.994;2023-07-31T03:16:30;98050.09;;;14.52;100.00
29907;BME280;16776;50.958;10.994;2023-07-31T03:18:56;98052.78;;;14.51;100.00
29907;BME280;16776;50.958;10.994;2023-07-31T03:21:23;98063.22;;;14.49;100.00
29907;BME280;16776;50.958;10.994;2023-07-31T03:23:50;98049.72;;;14.43;100.00
29907;BME280;16776;50.958;10.994;2023-07-31T03:26:17;98062.31;;;14.50;100.00
29907;BME280;16776;50.958;10.994;2023-07-31T03:28:44;98064.28;;;14.45;100.00
29907;BME280;16776;50.958;10.994;2023-07-31T03:31:11;98055.66;;;14.45;100.00
29907;BME280;16776;50.958;10.994;2023-07-31T03:33:38;98053.97;;;14.44;100.00
29907;BME280;16776;50.958;10.994;2023-07-31T03:36:04;98048.88;;;14.42;100.00
29907;BME280;16776;50.958;10.994;2023-07-31T03:38:31;98039.34;;;14.43;100.00
29907;BME280;16776;50.958;10.994;2023-07-31T03:40:57;98047.13;;;14.43;100.00
29907;BME280;16776;50.958;10.994;2023-07-31T03:43:26;98047.03;;;14.44;100.00
29907;BME280;16776;50.958;10.994;2023-07-31T03:45:52;98050.69;;;14.40;100.00
29907;BME280;16776;50.958;10.994;2023-07-31T03:48:19;98056.72;;;14.41;100.00
29907;BME280;16776;50.958;10.994;2023-07-31T03:50:46;98055.88;;;14.40;100.00
29907;BME280;16776;50.958;10.994;2023-07-31T03:53:12;98053.38;;;14.39;100.00
29907;BME280;16776;50.958;10.994;2023-07-31T03:55:40;98038.75;;;14.38;100.00
29907;BME280;16776;50.958;10.994;2023-07-31T03:58:07;98050.03;;;14.37;100.00
29907;BME280;16776;50.958;10.994;2023-07-31T04:00:35;98041.41;;;14.36;100.00
29907;BME280;16776;50.958;10.994;2023-07-31T04:03:01;98039.91;;;14.32;100.00
29907;BME280;16776;50.958;10.994;2023-07-31T04:05:29;98021.25;;;14.26;100.00
29907;BME280;16776;50.958;10.994;2023-07-31T04:07:56;98033.88;;;14.32;100.00
29907;BME280;16776;50.958;10.994;2023-07-31T04:10:23;98027.03;;;14.31;100.00
29907;BME280;16776;50.958;10.994;2023-07-31T04:12:49;98026.19;;;14.30;100.00
29907;BME280;16776;50.958;10.994;2023-07-31T04:15:16;98029.63;;;14.31;100.00
29907;BME280;16776;50.958;10.994;2023-07-31T04:17:44;98032.97;;;14.33;100.00
29907;BME280;16776;50.958;10.994;2023-07-31T04:20:11;98029.63;;;14.31;100.00
29907;BME280;16776;50.958;10.994;2023-07-31T04:22:37;98029.63;;;14.31;100.00
29907;BME280;16776;50.958;10.994;2023-07-31T04:25:05;98016.59;;;14.32;100.00
29907;BME280;16776;50.958;10.994;2023-07-31T04:27:31;98011.41;;;14.32;100.00
29907;BME280;16776;50.958;10.994;2023-07-31T04:29:58;98010.47;;;14.33;100.00
29907;BME280;16776;50.958;10.994;2023-07-31T04:32:24;98019.91;;;14.34;100.00
29907;BME280;16776;50.958;10.994;2023-07-31T04:34:53;98011.16;;;14.37;100.00
29907;BME280;16776;50.958;10.994;2023-07-31T04:37:23;98004.16;;;14.39;100.00
29907;BME280;16776;50.958;10.994;2023-07-31T04:39:49;98016.50;;;14.34;100.00
29907;BME280;16776;50.958;10.994;2023-07-31T04:42:16;98010.47;;;14.33;100.00
29907;BME280;16776;50.958;10.994;2023-07-31T04:44:42;98017.19;;;14.37;100.00
29907;BME280;16776;50.958;10.994;2023-07-31T04:47:09;98018.16;;;14.35;100.00
29907;BME280;16776;50.958;10.994;2023-07-31T04:49:36;98019.78;;;14.37;100.00
29907;BME280;16776;50.958;10.994;2023-07-31T04:52:04;98021.13;;;14.44;100.00
29907;BME280;16776;50.958;10.994;2023-07-31T04:54:31;98019.47;;;14.43;100.00
29907;BME280;16776;50.958;10.994;2023-07-31T04:56:58;98021.97;;;14.45;100.00
29907;BME280;16776;50.958;10.994;2023-07-31T04:59:24;98020.84;;;14.50;100.00
29907;BME280;16776;50.958;10.994;2023-07-31T05:01:51;98015.41;;;14.55;100.00
29907;BME280;16776;50.958;10.994;2023-07-31T05:04:17;98015.84;;;14.63;100.00
29907;BME280;16776;50.958;10.994;2023-07-31T05:06:44;98021.38;;;14.73;100.00
29907;BME280;16776;50.958;10.994;2023-07-31T05:09:12;98020.72;;;14.85;100.00
29907;BME280;16776;50.958;10.994;2023-07-31T05:11:38;98014.28;;;14.92;100.00
29907;BME280;16776;50.958;10.994;2023-07-31T05:14:05;98008.44;;;15.04;100.00
29907;BME280;16776;50.958;10.994;2023-07-31T05:16:32;98014.72;;;15.16;100.00
29907;BME280;16776;50.958;10.994;2023-07-31T05:18:59;98013.94;;;15.29;100.00
29907;BME280;16776;50.958;10.994;2023-07-31T05:21:25;98023.00;;;15.38;100.00
29907;BME280;16776;50.958;10.994;2023-07-31T05:23:53;98032.78;;;15.49;100.00
29907;BME280;16776;50.958;10.994;2023-07-31T05:26:21;98029.69;;;15.58;100.00
29907;BME280;16776;50.958;10.994;2023-07-31T05:28:47;98029.41;;;15.62;100.00
29907;BME280;16776;50.958;10.994;2023-07-31T05:31:14;98031.50;;;15.71;100.00
29907;BME280;16776;50.958;10.994;2023-07-31T05:33:40;98019.00;;;15.78;100.00
29907;BME280;16776;50.958;10.994;2023-07-31T05:36:13;98027.84;;;15.90;100.00
29907;BME280;16776;50.958;10.994;2023-07-31T05:38:43;98025.59;;;15.84;100.00
29907;BME280;16776;50.958;10.994;2023-07-31T05:41:10;98032.56;;;15.83;100.00
29907;BME280;16776;50.958;10.994;2023-07-31T05:43:38;98038.50;;;15.85;100.00
29907;BME280;16776;50.958;10.994;2023-07-31T05:46:05;98042.28;;;15.79;100.00
29907;BME280;16776;50.958;10.994;2023-07-31T05:48:32;98042.44;;;15.76;100.00
29907;BME280;16776;50.958;10.994;2023-07-31T05:50:59;98038.28;;;15.74;100.00
29907;BME280;16776;50.958;10.994;2023-07-31T05:53:26;98033.09;;;15.74;100.00
29907;BME280;16776;50.958;10.994;2023-07-31T05:55:52;98035.78;;;15.72;100.00
29907;BME280;16776;50.958;10.994;2023-07-31T05:58:19;98043.63;;;15.71;100.00
29907;BME280;16776;50.958;10.994;2023-07-31T06:00:47;98036.63;;;15.73;100.00
29907;BME280;16776;50.958;10.994;2023-07-31T06:03:14;98036.78;;;15.70;100.00
29907;BME280;16776;50.958;10.994;2023-07-31T06:05:41;98036.97;;;15.67;100.00
29907;BME280;16776;50.958;10.994;2023-07-31T06:08:07;98034.44;;;15.65;100.00
29907;BME280;16776;50.958;10.994;2023-07-31T06:10:34;98043.16;;;15.64;100.00
29907;BME280;16776;50.958;10.994;2023-07-31T06:13:01;98037.13;;;15.64;100.00
29907;BME280;16776;50.958;10.994;2023-07-31T06:15:27;98047.50;;;15.64;100.00
29907;BME280;16776;50.958;10.994;2023-07-31T06:17:55;98040.47;;;15.66;100.00
29907;BME280;16776;50.958;10.994;2023-07-31T06:20:22;98037.31;;;15.61;100.00
29907;BME280;16776;50.958;10.994;2023-07-31T06:22:49;98037.31;;;15.61;100.00
29907;BME280;16776;50.958;10.994;2023-07-31T06:25:16;98033.88;;;15.60;100.00
29907;BME280;16776;50.958;10.994;2023-07-31T06:27:42;98031.28;;;15.60;100.00
29907;BME280;16776;50.958;10.994;2023-07-31T06:30:10;98024.56;;;15.56;100.00
29907;BME280;16776;50.958;10.994;2023-07-31T06:32:37;98034.59;;;15.62;100.00
29907;BME280;16776;50.958;10.994;2023-07-31T06:35:05;98039.56;;;15.67;100.00
29907;BME280;16776;50.958;10.994;2023-07-31T06:37:32;98033.59;;;15.65;100.00
29907;BME280;16776;50.958;10.994;2023-07-31T06:39:58;98034.44;;;15.65;100.00
29907;BME280;16776;50.958;10.994;2023-07-31T06:42:25;98030.09;;;15.66;100.00
29907;BME280;16776;50.958;10.994;2023-07-31T06:44:52;98039.63;;;15.65;100.00
29907;BME280;16776;50.958;10.994;2023-07-31T06:47:18;98008.34;;;15.53;100.00
29907;BME280;16776;50.958;10.994;2023-07-31T06:49:45;98029.19;;;15.67;100.00
29907;BME280;16776;50.958;10.994;2023-07-31T06:52:13;98030.66;;;15.71;100.00
29907;BME280;16776;50.958;10.994;2023-07-31T06:54:39;98028.06;;;15.71;100.00
29907;BME280;16776;50.958;10.994;2023-07-31T06:57:06;98026.22;;;15.73;100.00
29907;BME280;16776;50.958;10.994;2023-07-31T06:59:33;98016.91;;;15.69;100.00
29907;BME280;16776;50.958;10.994;2023-07-31T07:02:00;98029.47;;;15.76;100.00
29907;BME280;16776;50.958;10.994;2023-07-31T07:04:26;98023.38;;;15.77;100.00
29907;BME280;16776;50.958;10.994;2023-07-31T07:06:53;98024.13;;;15.79;100.00
29907;BME280;16776;50.958;10.994;2023-07-31T07:09:21;98020.41;;;15.84;100.00
29907;BME280;16776;50.958;10.994;2023-07-31T07:11:47;98013.47;;;15.84;100.00
29907;BME280;16776;50.958;10.994;2023-07-31T07:14:14;98020.34;;;15.85;100.00
29907;BME280;16776;50.958;10.994;2023-07-31T07:16:41;98017.53;;;15.88;100.00
29907;BME280;16776;50.958;10.994;2023-07-31T07:19:07;98021.81;;;15.89;100.00
29907;BME280;16776;50.958;10.994;2023-07-31T07:21:34;98016.53;;;15.91;100.00
29907;BME280;16776;50.958;10.994;2023-07-31T07:24:01;98012.91;;;15.93;100.00
29907;BME280;16776;50.958;10.994;2023-07-31T07:26:29;98020.47;;;15.98;100.00
29907;BME280;16776;50.958;10.994;2023-07-31T07:28:58;98022.13;;;15.99;100.00
29907;BME280;16776;50.958;10.994;2023-07-31T07:31:27;98016.75;;;16.02;100.00
29907;BME280;16776;50.958;10.994;2023-07-31T07:33:53;98014.91;;;16.04;100.00
29907;BME280;16776;50.958;10.994;2023-07-31T07:36:20;98018.97;;;16.08;100.00
29907;BME280;16776;50.958;10.994;2023-07-31T07:38:47;98018.91;;;16.09;100.00
29907;BME280;16776;50.958;10.994;2023-07-31T07:41:14;98010.81;;;16.14;100.00
29907;BME280;16776;50.958;10.994;2023-07-31T07:43:41;98016.72;;;16.17;100.00
29907;BME280;16776;50.958;10.994;2023-07-31T07:46:08;98017.56;;;16.18;100.00
29907;BME280;16776;50.958;10.994;2023-07-31T07:48:34;98009.66;;;16.19;100.00
29907;BME280;16776;50.958;10.994;2023-07-31T07:51:01;98007.72;;;16.23;100.00
29907;BME280;16776;50.958;10.994;2023-07-31T07:53:28;98009.28;;;16.26;100.00
29907;BME280;16776;50.958;10.994;2023-07-31T07:55:54;98018.66;;;16.28;100.00
29907;BME280;16776;50.958;10.994;2023-07-31T07:58:24;98003.63;;;16.33;100.00
29907;BME280;16776;50.958;10.994;2023-07-31T08:00:52;97993.63;;;16.27;100.00
29907;BME280;16776;50.958;10.994;2023-07-31T08:03:18;98009.22;;;16.41;100.00
29907;BME280;16776;50.958;10.994;2023-07-31T08:05:47;98013.88;;;16.50;100.00
29907;BME280;16776;50.958;10.994;2023-07-31T08:08:15;98003.56;;;16.49;100.00
29907;BME280;16776;50.958;10.994;2023-07-31T08:10:42;98013.13;;;16.63;100.00
29907;BME280;16776;50.958;10.994;2023-07-31T08:13:09;98012.94;;;16.66;100.00
29907;BME280;16776;50.958;10.994;2023-07-31T08:15:36;98010.78;;;16.72;100.00
29907;BME280;16776;50.958;10.994;2023-07-31T08:18:04;98016.34;;;16.80;100.00
29907;BME280;16776;50.958;10.994;2023-07-31T08:20:30;98008.47;;;16.82;100.00
29907;BME280;16776;50.958;10.994;2023-07-31T08:22:57;98006.50;;;16.85;100.00
29907;BME280;16776;50.958;10.994;2023-07-31T08:25:23;98014.97;;;16.89;100.00
29907;BME280;16776;50.958;10.994;2023-07-31T08:27:50;98016.44;;;16.93;100.00
29907;BME280;16776;50.958;10.994;2023-07-31T08:30:18;98008.38;;;16.97;100.00
29907;BME280;16776;50.958;10.994;2023-07-31T08:32:45;98008.38;;;16.97;100.00
29907;BME280;16776;50.958;10.994;2023-07-31T08:35:13;98005.59;;;17.01;100.00
29907;BME280;16776;50.958;10.994;2023-07-31T08:37:39;98006.69;;;16.96;100.00
29907;BME280;16776;50.958;10.994;2023-07-31T08:40:07;98009.38;;;16.95;100.00
29907;BME280;16776;50.958;10.994;2023-07-31T08:42:33;98001.22;;;16.87;100.00
29907;BME280;16776;50.958;10.994;2023-07-31T08:45:01;98006.78;;;16.95;100.00
29907;BME280;16776;50.958;10.994;2023-07-31T08:47:30;98013.00;;;16.92;100.00
29907;BME280;16776;50.958;10.994;2023-07-31T08:49:57;98012.16;;;16.92;100.00
29907;BME280;16776;50.958;10.994;2023-07-31T08:52:26;98002.44;;;16.95;100.00
29907;BME280;16776;50.958;10.994;2023-07-31T08:54:53;97997.28;;;16.94;100.00
29907;BME280;16776;50.958;10.994;2023-07-31T08:57:19;97992.84;;;16.96;100.00
29907;BME280;16776;50.958;10.994;2023-07-31T08:59:46;97984.88;;;16.99;100.00
29907;BME280;16776;50.958;10.994;2023-07-31T09:02:14;97993.03;;;17.07;100.00
29907;BME280;16776;50.958;10.994;2023-07-31T09:04:41;97985.56;;;17.15;100.00
29907;BME280;16776;50.958;10.994;2023-07-31T09:07:08;97989.34;;;17.24;100.00
29907;BME280;16776;50.958;10.994;2023-07-31T09:09:39;97977.31;;;17.35;100.00
29907;BME280;16776;50.958;10.994;2023-07-31T09:12:06;97977.56;;;17.45;100.00
29907;BME280;16776;50.958;10.994;2023-07-31T09:14:36;97974.34;;;17.54;100.00
29907;BME280;16776;50.958;10.994;2023-07-31T09:17:04;97979.69;;;17.65;100.00
29907;BME280;16776;50.958;10.994;2023-07-31T09:19:33;97977.88;;;17.80;100.00
29907;BME280;16776;50.958;10.994;2023-07-31T09:22:02;97970.19;;;17.91;100.00
29907;BME280;16776;50.958;10.994;2023-07-31T09:24:30;97963.09;;;18.06;100.00
29907;BME280;16776;50.958;10.994;2023-07-31T09:27:00;97962.25;;;18.18;100.00
29907;BME280;16776;50.958;10.994;2023-07-31T09:29:27;97967.28;;;18.21;100.00
29907;BME280;16776;50.958;10.994;2023-07-31T09:31:55;97960.81;;;18.27;100.00
29907;BME280;16776;50.958;10.994;2023-07-31T09:34:29;97965.28;;;18.37;100.00
29907;BME280;16776;50.958;10.994;2023-07-31T09:36:58;97972.38;;;18.35;100.00
29907;BME280;16776;50.958;10.994;2023-07-31T09:39:27;97955.16;;;18.33;100.00
29907;BME280;16776;50.958;10.994;2023-07-31T09:41:54;97960.06;;;18.37;100.00
29907;BME280;16776;50.958;10.994;2023-07-31T09:44:37;97962.81;;;18.48;100.00
29907;BME280;16776;50.958;10.994;2023-07-31T09:47:04;97965.41;;;18.36;100.00
29907;BME280;16776;50.958;10.994;2023-07-31T09:49:31;97963.50;;;18.38;100.00
29907;BME280;16776;50.958;10.994;2023-07-31T09:51:57;97952.13;;;18.39;100.00
29907;BME280;16776;50.958;10.994;2023-07-31T09:54:25;97964.13;;;18.41;100.00
29907;BME280;16776;50.958;10.994;2023-07-31T09:56:52;97964.97;;;18.42;100.00
29907;BME280;16776;50.958;10.994;2023-07-31T09:59:24;97973.94;;;18.50;100.00
29907;BME280;16776;50.958;10.994;2023-07-31T10:01:52;97966.41;;;18.46;100.00
29907;BME280;16776;50.958;10.994;2023-07-31T10:04:25;97961.31;;;18.44;100.00
29907;BME280;16776;50.958;10.994;2023-07-31T10:06:53;97959.13;;;18.38;100.00
29907;BME280;16776;50.958;10.994;2023-07-31T10:09:21;97958.19;;;18.39;100.00
29907;BME280;16776;50.958;10.994;2023-07-31T10:11:53;97961.63;;;18.40;100.00
29907;BME280;16776;50.958;10.994;2023-07-31T10:14:25;97963.41;;;18.39;100.00
29907;BME280;16776;50.958;10.994;2023-07-31T10:16:52;97959.13;;;18.38;100.00
29907;BME280;16776;50.958;10.994;2023-07-31T10:19:20;97955.38;;;18.42;100.00
29907;BME280;16776;50.958;10.994;2023-07-31T10:21:48;97959.38;;;18.48;100.00
29907;BME280;16776;50.958;10.994;2023-07-31T10:24:15;97953.81;;;18.52;100.00
29907;BME280;16776;50.958;10.994;2023-07-31T10:26:44;97947.97;;;18.62;100.00
29907;BME280;16776;50.958;10.994;2023-07-31T10:29:15;97943.75;;;18.72;100.00
29907;BME280;16776;50.958;10.994;2023-07-31T10:31:45;97928.84;;;18.74;100.00
29907;BME280;16776;50.958;10.994;2023-07-31T10:34:13;97942.72;;;18.74;100.00
29907;BME280;16776;50.958;10.994;2023-07-31T10:36:40;97932.91;;;18.78;100.00
29907;BME280;16776;50.958;10.994;2023-07-31T10:39:34;97932.41;;;18.96;100.00
29907;BME280;16776;50.958;10.994;2023-07-31T10:42:09;97915.91;;;18.96;100.00
29907;BME280;16776;50.958;10.994;2023-07-31T10:44:36;97920.53;;;18.92;100.00
29907;BME280;16776;50.958;10.994;2023-07-31T10:47:04;97919.84;;;19.02;100.00
29907;BME280;16776;50.958;10.994;2023-07-31T10:49:32;97912.03;;;19.02;100.00
29907;BME280;16776;50.958;10.994;2023-07-31T10:51:58;97924.97;;;19.03;100.00
29907;BME280;16776;50.958;10.994;2023-07-31T10:54:27;97917.44;;;19.11;100.00
29907;BME280;16776;50.958;10.994;2023-07-31T10:56:53;97921.09;;;19.09;100.00
29907;BME280;16776;50.958;10.994;2023-07-31T10:59:26;97914.47;;;19.16;100.00
29907;BME280;16776;50.958;10.994;2023-07-31T11:01:54;97911.59;;;19.08;100.00
29907;BME280;16776;50.958;10.994;2023-07-31T11:04:24;97915.75;;;19.10;100.00
29907;BME280;16776;50.958;10.994;2023-07-31T11:06:58;97909.72;;;19.10;100.00
29907;BME280;16776;50.958;10.994;2023-07-31T11:09:27;97900.66;;;19.03;100.00
29907;BME280;16776;50.958;10.994;2023-07-31T11:11:56;97912.16;;;19.00;100.00
29907;BME280;16776;50.958;10.994;2023-07-31T11:14:22;97909.75;;;18.97;100.00
29907;BME280;16776;50.958;10.994;2023-07-31T11:16:49;97905.47;;;18.96;100.00
29907;BME280;16776;50.958;10.994;2023-07-31T11:19:21;97902.44;;;19.02;100.00
29907;BME280;16776;50.958;10.994;2023-07-31T11:21:49;97889.53;;;18.88;100.00
29907;BME280;16776;50.958;10.994;2023-07-31T11:24:16;97902.28;;;18.92;100.00
29907;BME280;16776;50.958;10.994;2023-07-31T11:26:49;97904.19;;;19.02;100.00
29907;BME280;16776;50.958;10.994;2023-07-31T11:29:15;97895.16;;;18.94;100.00
29907;BME280;16776;50.958;10.994;2023-07-31T11:31:45;97883.91;;;18.94;100.00
29907;BME280;16776;50.958;10.994;2023-07-31T11:34:13;97879.28;;;18.97;100.00
29907;BME280;16776;50.958;10.994;2023-07-31T11:36:39;97890.31;;;19.01;100.00
29907;BME280;16776;50.958;10.994;2023-07-31T11:39:08;97879.78;;;19.03;100.00
29907;BME280;16776;50.958;10.994;2023-07-31T11:41:35;97868.50;;;19.02;100.00
29907;BME280;16776;50.958;10.994;2023-07-31T11:44:01;97877.06;;;19.04;100.00
29907;BME280;16776;50.958;10.994;2023-07-31T11:46:30;97861.63;;;19.01;100.00
29907;BME280;16776;50.958;10.994;2023-07-31T11:48:59;97872.13;;;19.12;100.00
29907;BME280;16776;50.958;10.994;2023-07-31T11:51:27;97865.44;;;19.08;100.00
29907;BME280;16776;50.958;10.994;2023-07-31T11:53:56;97859.19;;;19.11;100.00
29907;BME280;16776;50.958;10.994;2023-07-31T11:56:26;97862.50;;;19.13;100.00
29907;BME280;16776;50.958;10.994;2023-07-31T11:58:55;97861.88;;;19.09;100.00
29907;BME280;16776;50.958;10.994;2023-07-31T12:01:23;97859.38;;;19.08;100.00
29907;BME280;16776;50.958;10.994;2023-07-31T12:03:52;97846.22;;;19.09;100.00
29907;BME280;16776;50.958;10.994;2023-07-31T12:06:19;97842.56;;;19.12;100.00
29907;BME280;16776;50.958;10.994;2023-07-31T12:08:46;97831.78;;;19.16;100.00
29907;BME280;16776;50.958;10.994;2023-07-31T12:11:12;97802.22;;;19.05;100.00
29907;BME280;16776;50.958;10.994;2023-07-31T12:13:41;97823.31;;;19.25;100.00
29907;BME280;16776;50.958;10.994;2023-07-31T12:16:08;97827.56;;;19.26;100.00
29907;BME280;16776;50.958;10.994;2023-07-31T12:18:36;97825.22;;;19.34;100.00
29907;BME280;16776;50.958;10.994;2023-07-31T12:21:05;97825.97;;;19.48;100.00
29907;BME280;16776;50.958;10.994;2023-07-31T12:23:33;97821.81;;;19.56;100.00
29907;BME280;16776;50.958;10.994;2023-07-31T12:26:04;97836.47;;;19.70;100.00
29907;BME280;16776;50.958;10.994;2023-07-31T12:28:35;97816.50;;;19.80;100.00
29907;BME280;16776;50.958;10.994;2023-07-31T12:31:04;97828.63;;;19.81;100.00
29907;BME280;16776;50.958;10.994;2023-07-31T12:33:32;97837.44;;;19.91;100.00
29907;BME280;16776;50.958;10.994;2023-07-31T12:36:01;97838.13;;;20.04;100.00
29907;BME280;16776;50.958;10.994;2023-07-31T12:38:28;97842.31;;;20.07;100.00
29907;BME280;16776;50.958;10.994;2023-07-31T12:40:54;97836.59;;;20.13;100.00
29907;BME280;16776;50.958;10.994;2023-07-31T12:43:21;97835.41;;;20.17;100.00